createdAt,value
2022-10-06T00:02:24.169Z,101211.34
2022-10-06T00:04:52.844Z,101212.22
2022-10-06T00:07:20.216Z,101211.34
2022-10-06T00:09:47.600Z,101215.72
2022-10-06T00:12:15.050Z,101214.00
2022-10-06T00:14:42.432Z,101227.09
2022-10-06T00:17:09.817Z,101223.31
2022-10-06T00:19:37.192Z,101222.31
2022-10-06T00:22:05.863Z,101218.13
2022-10-06T00:24:33.401Z,101226.81
2022-10-06T00:27:00.853Z,101225.25
2022-10-06T00:29:28.236Z,101232.16
2022-10-06T00:31:56.086Z,101239.19
2022-10-06T00:34:23.487Z,101239.47
2022-10-06T00:36:50.875Z,101258.13
2022-10-06T00:39:20.314Z,101253.50
2022-10-06T00:41:47.708Z,101251.53
2022-10-06T00:44:15.096Z,101265.88
2022-10-06T00:46:45.031Z,101250.84
2022-10-06T00:49:14.958Z,101259.09
2022-10-06T00:51:43.862Z,101259.69
2022-10-06T00:54:11.665Z,101263.34
2022-10-06T00:56:40.892Z,101266.84
2022-10-06T00:59:13.720Z,101265.88
2022-10-06T01:01:43.331Z,101259.09
2022-10-06T01:04:11.493Z,101265.00
2022-10-06T01:06:46.748Z,101267.81
2022-10-06T01:09:15.246Z,101268.53
2022-10-06T01:11:44.253Z,101268.66
2022-10-06T01:14:11.909Z,101273.00
2022-10-06T01:16:40.541Z,101268.81
2022-10-06T01:19:10.444Z,101263.34
2022-10-06T01:21:39.515Z,101271.47
2022-10-06T01:24:10.354Z,101268.53
2022-10-06T01:26:39.198Z,101274.84
2022-10-06T01:29:06.624Z,101274.00
2022-10-06T01:31:34.121Z,101272.44
2022-10-06T01:34:01.571Z,101275.22
2022-10-06T01:36:29.619Z,101281.44
2022-10-06T01:38:57.032Z,101286.47
2022-10-06T01:41:27.629Z,101287.47
2022-10-06T01:43:55.398Z,101290.84
2022-10-06T01:46:22.818Z,101293.91
2022-10-06T01:48:50.247Z,101289.16
2022-10-06T01:51:17.721Z,101288.31
2022-10-06T01:53:45.106Z,101289.88
2022-10-06T01:56:12.594Z,101285.50
2022-10-06T01:58:41.521Z,101290.00
2022-10-06T02:01:09.247Z,101284.81
2022-10-06T02:03:37.123Z,101285.75
2022-10-06T02:06:04.764Z,101283.81
2022-10-06T02:08:33.027Z,101289.16
2022-10-06T02:11:05.669Z,101284.69
2022-10-06T02:13:33.368Z,101292.56
2022-10-06T02:16:02.072Z,101291.69
2022-10-06T02:18:29.805Z,101289.28
2022-10-06T02:20:57.391Z,101286.59
2022-10-06T02:23:24.766Z,101291.09
2022-10-06T02:25:59.037Z,101301.78
2022-10-06T02:28:27.797Z,101285.75
2022-10-06T02:30:56.809Z,101283.94
2022-10-06T02:33:25.539Z,101293.78
2022-10-06T02:35:55.412Z,101301.78
2022-10-06T02:38:23.785Z,101306.97
2022-10-06T02:40:51.243Z,101309.66
2022-10-06T02:43:18.699Z,101303.72
2022-10-06T02:45:54.181Z,101309.06
2022-10-06T02:48:21.662Z,101315.81
2022-10-06T02:50:55.747Z,101314.00
2022-10-06T02:53:23.850Z,101321.44
2022-10-06T02:55:51.269Z,101320.56
2022-10-06T02:58:18.653Z,101328.56
2022-10-06T03:00:46.069Z,101333.66
2022-10-06T03:03:13.476Z,101327.22
2022-10-06T03:05:40.894Z,101329.91
2022-10-06T03:08:11.044Z,101339.56
2022-10-06T03:10:38.509Z,101344.19
2022-10-06T03:13:07.026Z,101346.03
2022-10-06T03:15:34.533Z,101346.16
2022-10-06T03:18:02.050Z,101346.03
2022-10-06T03:20:29.541Z,101348.69
2022-10-06T03:22:57.039Z,101348.69
2022-10-06T03:25:25.928Z,101355.25
2022-10-06T03:27:54.020Z,101358.50
2022-10-06T03:30:21.575Z,101366.25
2022-10-06T03:32:49.635Z,101368.19
2022-10-06T03:35:17.034Z,101368.06
2022-10-06T03:37:45.101Z,101377.91
2022-10-06T03:40:14.797Z,101393.47
2022-10-06T03:42:43.470Z,101390.50
2022-10-06T03:45:11.228Z,101398.03
2022-10-06T03:47:38.651Z,101404.13
2022-10-06T03:50:06.671Z,101414.63
2022-10-06T03:52:34.333Z,101433.47
2022-10-06T03:55:01.726Z,101435.84
2022-10-06T03:57:29.107Z,101443.84
2022-10-06T03:59:59.792Z,101458.44
2022-10-06T04:02:27.294Z,101458.44
2022-10-06T04:04:55.725Z,101472.47
2022-10-06T04:07:24.486Z,101468.13
2022-10-06T04:09:53.107Z,101463.53
2022-10-06T04:12:20.545Z,101471.66
2022-10-06T04:14:47.939Z,101475.28
2022-10-06T04:17:16.632Z,101480.47
2022-10-06T04:19:44.273Z,101495.66
2022-10-06T04:22:11.676Z,101499.16
2022-10-06T04:24:39.054Z,101501.00
2022-10-06T04:27:24.318Z,101515.16
2022-10-06T04:30:03.090Z,101513.72
2022-10-06T04:32:32.924Z,101520.13
2022-10-06T04:35:01.283Z,101523.53
2022-10-06T04:37:28.923Z,101523.75
2022-10-06T04:39:56.715Z,101527.28
2022-10-06T04:42:24.481Z,101532.47
2022-10-06T04:44:51.870Z,101538.09
2022-10-06T04:47:19.260Z,101541.59
2022-10-06T04:49:49.309Z,101538.22
2022-10-06T04:52:16.756Z,101532.88
2022-10-06T04:54:44.147Z,101535.53
2022-10-06T04:57:12.697Z,101546.09
2022-10-06T04:59:59.497Z,101551.44
2022-10-06T05:02:31.529Z,101557.59
2022-10-06T05:05:00.298Z,101555.06
2022-10-06T05:07:28.136Z,101556.88
2022-10-06T05:09:57.559Z,101565.00
2022-10-06T05:12:24.951Z,101572.88
2022-10-06T05:14:52.470Z,101587.91
2022-10-06T05:17:19.920Z,101594.34
2022-10-06T05:19:48.060Z,101607.56
2022-10-06T05:22:16.756Z,101619.19
2022-10-06T05:24:44.920Z,101621.16
2022-10-06T05:27:12.339Z,101618.47
2022-10-06T05:29:39.787Z,101621.97
2022-10-06T05:32:08.948Z,101616.78
2022-10-06T05:34:37.511Z,101633.38
2022-10-06T05:37:04.919Z,101646.13
2022-10-06T05:39:33.611Z,101647.09
2022-10-06T05:42:01.023Z,101654.22
2022-10-06T05:44:28.418Z,101661.41
2022-10-06T05:46:59.000Z,101659.72
2022-10-06T05:49:26.404Z,101669.53
2022-10-06T05:51:59.598Z,101677.41
2022-10-06T05:54:29.099Z,101682.75
2022-10-06T05:56:57.870Z,101693.41
2022-10-06T05:59:25.330Z,101696.56
2022-10-06T06:01:55.057Z,101701.28
2022-10-06T06:04:34.159Z,101715.59
2022-10-06T06:07:01.982Z,101729.69
2022-10-06T06:09:29.467Z,101727.97
2022-10-06T06:12:00.929Z,101743.13
2022-10-06T06:14:53.508Z,101746.53
2022-10-06T06:17:24.700Z,101756.47
2022-10-06T06:19:52.079Z,101771.47
2022-10-06T06:22:19.481Z,101775.75
2022-10-06T06:24:49.404Z,101788.75
2022-10-06T06:27:18.162Z,101788.75
2022-10-06T06:29:46.001Z,101799.53
2022-10-06T06:32:13.566Z,101796.75
2022-10-06T06:34:41.737Z,101804.59
2022-10-06T06:37:15.028Z,101814.13
2022-10-06T06:39:43.263Z,101818.56
2022-10-06T06:42:10.716Z,101822.00
2022-10-06T06:44:57.809Z,101824.56
2022-10-06T06:47:36.018Z,101832.91
2022-10-06T06:50:10.079Z,101858.63
2022-10-06T06:52:38.682Z,101850.63
2022-10-06T06:55:08.505Z,101858.28
2022-10-06T06:57:35.919Z,101864.59
2022-10-06T07:00:07.847Z,101858.41
2022-10-06T07:02:36.429Z,101882.53
2022-10-06T07:05:05.204Z,101888.50
2022-10-06T07:07:32.818Z,101892.59
2022-10-06T07:10:01.029Z,101884.00
2022-10-06T07:12:31.230Z,101905.22
2022-10-06T07:15:16.741Z,101908.72
2022-10-06T07:18:06.390Z,101913.44
2022-10-06T07:20:51.497Z,101921.47
2022-10-06T07:23:37.342Z,101916.13
2022-10-06T07:26:08.056Z,101921.47
2022-10-06T07:28:35.552Z,101922.19
2022-10-06T07:31:03.065Z,101931.66
2022-10-06T07:33:33.641Z,101931.41
2022-10-06T07:36:04.585Z,101939.66
2022-10-06T07:38:33.460Z,101948.66
2022-10-06T07:43:54.383Z,101957.59
2022-10-06T07:46:23.016Z,101952.16
2022-10-06T07:49:21.623Z,101976.06
2022-10-06T07:51:49.084Z,101966.22
2022-10-06T07:54:17.513Z,101967.09
2022-10-06T07:56:57.449Z,101983.34
2022-10-06T07:59:24.861Z,101983.13
2022-10-06T08:01:52.912Z,101986.28
2022-10-06T08:04:21.623Z,101990.63
2022-10-06T08:06:49.393Z,101999.50
2022-10-06T08:09:16.775Z,101999.38
2022-10-06T08:11:45.068Z,102002.81
2022-10-06T08:14:14.999Z,102013.00
2022-10-06T08:16:42.416Z,102008.03
2022-10-06T08:19:11.503Z,102019.88
2022-10-06T08:21:40.444Z,102024.03
2022-10-06T08:24:07.845Z,102023.16
2022-10-06T08:26:35.876Z,102019.53
2022-10-06T08:29:03.823Z,102035.22
2022-10-06T08:31:31.422Z,102040.41
2022-10-06T08:33:58.908Z,102040.56
2022-10-06T08:36:31.468Z,102052.41
2022-10-06T08:39:01.391Z,102056.06
2022-10-06T08:41:30.259Z,102050.84
2022-10-06T08:44:00.060Z,102057.66
2022-10-06T08:46:31.256Z,102056.59
2022-10-06T08:48:58.714Z,102063.72
2022-10-06T08:51:32.204Z,102062.03
2022-10-06T08:54:04.433Z,102064.94
2022-10-06T08:56:33.276Z,102071.44
2022-10-06T08:59:04.043Z,102062.97
2022-10-06T09:01:33.749Z,102069.25
2022-10-06T09:04:02.158Z,102075.53
2022-10-06T09:06:38.962Z,102073.09
2022-10-06T09:09:14.654Z,102081.09
2022-10-06T09:11:47.527Z,102082.91
2022-10-06T09:14:17.299Z,102095.25
2022-10-06T09:16:45.711Z,102108.59
2022-10-06T09:19:15.241Z,102095.03
2022-10-06T09:21:45.482Z,102110.19
2022-10-06T09:24:15.594Z,102118.19
2022-10-06T09:26:45.148Z,102107.41
2022-10-06T09:29:12.593Z,102108.16
2022-10-06T09:31:42.096Z,102112.00
2022-10-06T09:34:15.206Z,102115.66
2022-10-06T09:37:01.736Z,102129.94
2022-10-06T09:39:36.269Z,102140.50
2022-10-06T09:42:06.731Z,102136.88
2022-10-06T09:44:44.950Z,102136.53
2022-10-06T09:47:40.861Z,102145.31
2022-10-06T09:50:17.543Z,102139.84
2022-10-06T09:52:48.369Z,102137.72
2022-10-06T09:55:17.748Z,102135.69
2022-10-06T09:57:49.171Z,102148.31
2022-10-06T10:00:27.315Z,102150.84
2022-10-06T10:02:57.804Z,102155.34
2022-10-06T10:05:25.240Z,102153.31
2022-10-06T10:08:01.842Z,102148.69
2022-10-06T10:10:30.626Z,102158.75
2022-10-06T10:12:58.746Z,102166.41
2022-10-06T10:15:29.357Z,102154.38
2022-10-06T10:17:57.143Z,102148.69
2022-10-06T10:20:34.160Z,102161.59
2022-10-06T10:23:03.717Z,102166.19
2022-10-06T10:25:44.365Z,102162.97
2022-10-06T10:28:20.301Z,102171.09
2022-10-06T10:30:51.050Z,102167.53
2022-10-06T10:35:53.827Z,102175.00
2022-10-06T10:38:21.984Z,102174.28
2022-10-06T10:40:51.483Z,102164.81
2022-10-06T10:43:22.854Z,102168.22
2022-10-06T10:45:51.467Z,102174.31
2022-10-06T10:48:21.972Z,102193.00
2022-10-06T10:50:51.740Z,102179.75
2022-10-06T10:53:21.429Z,102171.88
2022-10-06T10:55:49.779Z,102181.47
2022-10-06T10:58:22.008Z,102182.31
2022-10-06T11:00:50.948Z,102185.00
2022-10-06T11:03:18.337Z,102183.19
2022-10-06T11:05:54.141Z,102197.28
2022-10-06T11:08:24.993Z,102184.25
2022-10-06T11:10:54.319Z,102191.53
2022-10-06T11:13:27.962Z,102186.81
2022-10-06T11:16:14.511Z,102184.88
2022-10-06T11:18:48.840Z,102192.56
2022-10-06T11:21:17.187Z,102193.75
2022-10-06T11:23:48.675Z,102190.09
2022-10-06T11:26:24.556Z,102199.63
2022-10-06T11:28:55.554Z,102214.78
2022-10-06T11:31:25.984Z,102208.06
2022-10-06T11:33:54.225Z,102194.28
2022-10-06T11:36:26.568Z,102199.25
2022-10-06T11:38:56.440Z,102204.47
2022-10-06T11:41:24.822Z,102222.03
2022-10-06T11:43:57.951Z,102205.13
2022-10-06T11:46:32.074Z,102213.03
2022-10-06T11:49:39.289Z,102208.00
2022-10-06T11:52:55.756Z,102210.38
2022-10-06T11:55:26.144Z,102217.31
2022-10-06T12:01:05.127Z,102228.97
2022-10-06T12:03:46.445Z,102228.84
2022-10-06T12:06:51.432Z,102215.50
2022-10-06T12:09:52.277Z,102229.50
2022-10-06T12:12:42.189Z,102230.91
2022-10-06T12:18:15.435Z,102220.84
2022-10-06T12:20:51.261Z,102214.16
2022-10-06T12:23:25.472Z,102211.28
2022-10-06T12:25:54.965Z,102224.53
2022-10-06T12:28:28.804Z,102223.41
2022-10-06T12:31:07.638Z,102228.53
2022-10-06T12:33:38.980Z,102224.03
2022-10-06T12:36:13.728Z,102222.34
2022-10-06T12:38:43.048Z,102219.56
2022-10-06T12:41:11.335Z,102224.03
2022-10-06T12:43:57.052Z,102227.47
2022-10-06T12:46:33.763Z,102239.84
2022-10-06T12:49:25.252Z,102243.41
2022-10-06T12:51:56.012Z,102240.06
2022-10-06T12:54:29.121Z,102242.53
2022-10-06T12:56:58.661Z,102231.56
2022-10-06T12:59:27.050Z,102231.31
2022-10-06T13:01:55.725Z,102235.84
2022-10-06T13:04:49.282Z,102237.66
2022-10-06T13:07:18.124Z,102225.38
2022-10-06T13:09:45.893Z,102230.81
2022-10-06T13:12:26.624Z,102235.22
2022-10-06T13:15:20.292Z,102229.88
2022-10-06T13:17:49.843Z,102249.41
2022-10-06T13:20:28.106Z,102268.97
2022-10-06T13:22:59.440Z,102240.56
2022-10-06T13:25:28.620Z,102245.06
2022-10-06T13:27:56.041Z,102249.41
2022-10-06T13:30:23.940Z,102249.53
2022-10-06T13:32:52.895Z,102235.22
2022-10-06T13:35:20.642Z,102247.72
2022-10-06T13:37:49.325Z,102248.34
2022-10-06T13:40:21.784Z,102242.25
2022-10-06T13:42:55.133Z,102246.53
2022-10-06T13:45:22.512Z,102252.72
2022-10-06T13:47:50.068Z,102250.03
2022-10-06T13:50:19.956Z,102262.44
2022-10-06T13:52:50.497Z,102264.28
2022-10-06T13:55:19.201Z,102264.38
2022-10-06T13:57:47.186Z,102262.34
2022-10-06T14:00:20.262Z,102260.50
2022-10-06T14:02:48.295Z,102269.25
2022-10-06T14:05:27.381Z,102267.56
2022-10-06T14:07:57.709Z,102262.09
2022-10-06T14:10:27.291Z,102261.13
2022-10-06T14:12:54.744Z,102261.22
2022-10-06T14:15:22.843Z,102260.38
2022-10-06T14:17:53.991Z,102264.63
2022-10-06T14:20:51.386Z,102269.03
2022-10-06T14:23:42.871Z,102262.94
2022-10-06T14:26:11.096Z,102286.78
2022-10-06T14:28:38.888Z,102280.69
2022-10-06T14:31:09.612Z,102283.34
2022-10-06T14:33:39.439Z,102284.34
2022-10-06T14:36:06.953Z,102282.63
2022-10-06T14:38:34.326Z,102294.19
2022-10-06T14:41:03.639Z,102283.59
2022-10-06T14:43:31.022Z,102285.41
2022-10-06T14:46:01.443Z,102275.59
2022-10-06T14:48:31.526Z,102278.25
2022-10-06T14:51:02.517Z,102280.94
2022-10-06T14:53:29.908Z,102283.72
2022-10-06T14:56:01.846Z,102286.50
2022-10-06T14:58:30.560Z,102297.19
2022-10-06T15:01:04.163Z,102288.88
2022-10-06T15:03:31.694Z,102286.81
2022-10-06T15:06:21.128Z,102285.75
2022-10-06T15:08:52.035Z,102288.31
2022-10-06T15:11:20.045Z,102288.19
2022-10-06T15:13:48.749Z,102286.50
2022-10-06T15:16:16.243Z,102283.09
2022-10-06T15:18:43.634Z,102286.72
2022-10-06T15:21:11.242Z,102291.34
2022-10-06T15:23:38.769Z,102296.69
2022-10-06T15:26:24.182Z,102289.50
2022-10-06T15:29:02.761Z,102295.06
2022-10-06T15:31:32.381Z,102296.91
2022-10-06T15:34:01.033Z,102294.44
2022-10-06T15:36:29.193Z,102291.78
2022-10-06T15:38:56.969Z,102292.75
2022-10-06T15:41:24.348Z,102291.88
2022-10-06T15:43:56.257Z,102297.22
2022-10-06T15:46:28.148Z,102289.34
2022-10-06T15:48:55.861Z,102296.38
2022-10-06T15:51:23.362Z,102292.97
2022-10-06T15:53:51.091Z,102292.13
2022-10-06T15:56:18.496Z,102299.16
2022-10-06T15:58:46.207Z,102295.75
2022-10-06T16:01:38.878Z,102301.94
2022-10-06T16:04:11.996Z,102295.75
2022-10-06T16:06:50.328Z,102302.81
2022-10-06T16:09:18.566Z,102297.69
2022-10-06T16:11:46.220Z,102310.22
2022-10-06T16:14:13.756Z,102301.41
2022-10-06T16:16:43.818Z,102304.72
2022-10-06T16:19:11.521Z,102309.22
2022-10-06T16:21:39.078Z,102314.34
2022-10-06T16:24:06.630Z,102308.78
2022-10-06T16:26:34.055Z,102312.19
2022-10-06T16:29:01.440Z,102319.47
2022-10-06T16:31:29.036Z,102321.16
2022-10-06T16:33:57.768Z,102320.22
2022-10-06T16:36:25.168Z,102323.94
2022-10-06T16:38:53.060Z,102323.31
2022-10-06T16:41:20.578Z,102330.59
2022-10-06T16:43:48.915Z,102318.22
2022-10-06T16:46:17.504Z,102320.91
2022-10-06T16:48:46.023Z,102324.59
2022-10-06T16:51:15.437Z,102332.50
2022-10-06T16:53:43.447Z,102334.44
2022-10-06T16:56:13.474Z,102340.75
2022-10-06T16:58:41.654Z,102341.72
2022-10-06T17:01:09.134Z,102342.47
2022-10-06T17:03:36.968Z,102345.34
2022-10-06T17:06:05.604Z,102350.56
2022-10-06T17:08:34.289Z,102353.25
2022-10-06T17:11:02.985Z,102356.03
2022-10-06T17:13:30.400Z,102358.69
2022-10-06T17:16:01.511Z,102361.38
2022-10-06T17:18:28.945Z,102367.56
2022-10-06T17:20:57.243Z,102361.47
2022-10-06T17:23:24.759Z,102370.34
2022-10-06T17:26:04.075Z,102369.59
2022-10-06T17:28:31.750Z,102360.63
2022-10-06T17:30:59.998Z,102363.53
2022-10-06T17:33:29.015Z,102363.53
2022-10-06T17:35:56.563Z,102366.94
2022-10-06T17:38:25.617Z,102369.72
2022-10-06T17:40:53.045Z,102364.47
2022-10-06T17:43:23.195Z,102370.44
2022-10-06T17:45:51.468Z,102374.00
2022-10-06T17:48:18.992Z,102368.88
2022-10-06T17:50:57.596Z,102364.38
2022-10-06T17:53:26.679Z,102361.81
2022-10-06T17:55:54.554Z,102361.81
2022-10-06T17:58:23.524Z,102364.56
2022-10-06T18:00:51.051Z,102369.06
2022-10-06T18:03:19.180Z,102371.75
2022-10-06T18:05:54.624Z,102379.88
2022-10-06T18:08:23.559Z,102369.28
2022-10-06T18:11:08.771Z,102381.69
2022-10-06T18:13:37.469Z,102371.00
2022-10-06T18:16:05.142Z,102369.28
2022-10-06T18:18:33.269Z,102373.78
2022-10-06T18:21:04.114Z,102370.28
2022-10-06T18:23:33.343Z,102369.41
2022-10-06T18:26:01.630Z,102375.63
2022-10-06T18:28:29.427Z,102380.22
2022-10-06T18:30:58.152Z,102376.47
2022-10-06T18:36:15.069Z,102378.28
2022-10-06T18:38:44.242Z,102376.56
2022-10-06T18:41:12.628Z,102378.28
2022-10-06T18:43:40.002Z,102375.84
2022-10-06T18:46:26.506Z,102375.72
2022-10-06T18:48:56.889Z,102377.56
2022-10-06T18:51:24.989Z,102384.69
2022-10-06T18:53:54.658Z,102381.06
2022-10-06T18:56:23.581Z,102382.75
2022-10-06T18:58:50.959Z,102386.81
2022-10-06T19:01:19.742Z,102375.25
2022-10-06T19:03:47.237Z,102379.66
2022-10-06T19:06:14.632Z,102378.06
2022-10-06T19:08:42.333Z,102386.09
2022-10-06T19:11:27.313Z,102389.50
2022-10-06T19:13:57.467Z,102383.16
2022-10-06T19:16:26.185Z,102384.16
2022-10-06T19:18:54.459Z,102391.28
2022-10-06T19:21:21.884Z,102392.06
2022-10-06T19:23:50.213Z,102400.19
2022-10-06T19:26:18.977Z,102396.22
2022-10-06T19:28:46.628Z,102394.63
2022-10-06T19:31:14.949Z,102397.91
2022-10-06T19:33:43.650Z,102396.44
2022-10-06T19:36:11.169Z,102394.91
2022-10-06T19:38:38.660Z,102393.44
2022-10-06T19:41:23.679Z,102399.50
2022-10-06T19:43:51.185Z,102394.91
2022-10-06T19:46:18.927Z,102394.50
2022-10-06T19:48:51.848Z,102398.34
2022-10-06T19:51:19.245Z,102400.91
2022-10-06T19:53:49.650Z,102404.41
2022-10-06T19:56:17.842Z,102399.91
2022-10-06T19:58:45.264Z,102411.59
2022-10-06T20:01:12.878Z,102402.59
2022-10-06T20:03:41.407Z,102412.75
2022-10-06T20:06:13.230Z,102422.94
2022-10-06T20:08:41.394Z,102425.94
2022-10-06T20:11:09.786Z,102427.94
2022-10-06T20:13:38.509Z,102425.50
2022-10-06T20:16:08.446Z,102433.50
2022-10-06T20:18:36.807Z,102438.31
2022-10-06T20:21:04.344Z,102433.94
2022-10-06T20:23:33.499Z,102439.28
2022-10-06T20:26:11.489Z,102431.38
2022-10-06T20:28:39.036Z,102434.16
2022-10-06T20:31:06.738Z,102435.13
2022-10-06T20:33:34.558Z,102427.09
2022-10-06T20:36:02.926Z,102426.25
2022-10-06T20:38:48.038Z,102435.13
2022-10-06T20:41:19.473Z,102441.31
2022-10-06T20:43:47.016Z,102437.06
2022-10-06T20:46:14.508Z,102433.41
2022-10-06T20:48:41.982Z,102441.41
2022-10-06T20:51:12.659Z,102443.13
2022-10-06T20:53:40.115Z,102439.63
2022-10-06T20:56:07.782Z,102444.19
2022-10-06T20:58:36.585Z,102443.25
2022-10-06T21:01:06.089Z,102441.53
2022-10-06T21:03:34.672Z,102440.47
2022-10-06T21:06:02.252Z,102443.34
2022-10-06T21:08:30.062Z,102438.97
2022-10-06T21:10:57.780Z,102435.22
2022-10-06T21:13:25.307Z,102430.00
2022-10-06T21:15:54.125Z,102436.31
2022-10-06T21:18:22.570Z,102433.63
2022-10-06T21:20:57.172Z,102428.41
2022-10-06T21:23:24.674Z,102437.16
2022-10-06T21:25:52.163Z,102429.25
2022-10-06T21:28:21.605Z,102428.69
2022-10-06T21:30:49.638Z,102431.38
2022-10-06T21:33:18.488Z,102425.38
2022-10-06T21:35:46.001Z,102421.56
2022-10-06T21:38:13.494Z,102422.50
2022-10-06T21:40:41.031Z,102424.34
2022-10-06T21:43:08.580Z,102420.03
2022-10-06T21:45:39.910Z,102419.31
2022-10-06T21:48:07.403Z,102423.47
2022-10-06T21:50:36.253Z,102425.19
2022-10-06T21:53:03.762Z,102412.66
2022-10-06T21:55:31.280Z,102418.16
2022-10-06T21:57:59.188Z,102411.81
2022-10-06T22:00:26.724Z,102422.28
2022-10-06T22:02:54.379Z,102415.22
2022-10-06T22:05:21.880Z,102408.94
2022-10-06T22:07:50.720Z,102399.97
2022-10-06T22:10:18.210Z,102408.94
2022-10-06T22:12:45.856Z,102408.94
2022-10-06T22:15:13.343Z,102411.59
2022-10-06T22:17:41.068Z,102399.97
2022-10-06T22:20:09.673Z,102404.97
2022-10-06T22:22:37.167Z,102409.69
2022-10-06T22:25:06.331Z,102404.34
2022-10-06T22:27:34.138Z,102415.00
2022-10-06T22:30:01.580Z,102401.66
2022-10-06T22:32:29.078Z,102402.50
2022-10-06T22:34:57.421Z,102401.56
2022-10-06T22:37:24.918Z,102408.84
2022-10-06T22:39:52.402Z,102413.34
2022-10-06T22:42:21.180Z,102394.72
2022-10-06T22:44:48.665Z,102391.19
2022-10-06T22:47:17.546Z,102386.63
2022-10-06T22:49:45.034Z,102389.50
2022-10-06T22:52:12.536Z,102401.13
2022-10-06T22:54:40.035Z,102395.69
2022-10-06T22:57:07.696Z,102395.38
2022-10-06T22:59:36.488Z,102385.75
2022-10-06T23:02:03.976Z,102396.22
2022-10-06T23:04:31.476Z,102386.47
2022-10-06T23:06:59.044Z,102392.81
2022-10-06T23:09:26.615Z,102380.59
2022-10-06T23:11:54.143Z,102365.47
2022-10-06T23:14:21.631Z,102373.47
2022-10-06T23:16:50.536Z,102376.34
2022-10-06T23:19:18.036Z,102377.31
2022-10-06T23:21:45.543Z,102378.06
2022-10-06T23:24:13.030Z,102376.13
2022-10-06T23:26:40.535Z,102376.47
2022-10-06T23:29:08.030Z,102378.06
2022-10-06T23:31:35.631Z,102377.19
2022-10-06T23:34:04.427Z,102375.41
2022-10-06T23:36:31.918Z,102378.91
2022-10-06T23:39:00.335Z,102386.81
2022-10-06T23:41:27.828Z,102374.53
2022-10-06T23:43:55.337Z,102379.97
2022-10-06T23:46:22.853Z,102375.50
2022-10-06T23:48:50.342Z,102379.03
2022-10-06T23:51:19.144Z,102372.84
2022-10-06T23:53:46.716Z,102380.97
2022-10-06T23:56:14.525Z,102378.28
2022-10-06T23:58:42.683Z,102377.56
